Time;durP1;ratioP1;P1;durP2;ratioP2;P2;SDS_P1;SDS_P2;PMS_P1;PMS_P2;Temp;Humidity;BMP_temperature;BMP_pressure;BME280_temperature;BME280_humidity;BME280_pressure;Samples;Min_cycle;Max_cycle;Signal;HPM_P1;HPM_P2
2024/01/05 00:00:17;;;;;;;2.05;1.40;;;;;;;;;;5074027;28;20079;-82
2024/01/05 00:02:42;;;;;;;0.65;0.65;;;;;;;;;;5071356;28;20055;-84
2024/01/05 00:05:08;;;;;;;3.42;1.88;;;;;;;;;;5073050;28;20354;-84
2024/01/05 00:07:33;;;;;;;3.22;1.48;;;;;;;;;;5073910;28;20075;-82
2024/01/05 00:09:59;;;;;;;1.48;1.30;;;;;;;;;;5074585;28;20040;-83
2024/01/05 00:12:27;;;;;;;3.72;1.45;;;;;;;;;;5073316;28;20457;-82
2024/01/05 00:14:54;;;;;;;1.08;0.98;;;;;;;;;;5054228;28;20036;-82
2024/01/05 00:17:20;;;;;;;0.50;0.50;;;;;;;;;;5071290;28;20047;-83
2024/01/05 00:19:45;;;;;;;0.63;0.45;;;;;;;;;;5072815;28;20111;-82
2024/01/05 00:22:11;;;;;;;0.40;0.40;;;;;;;;;;5071937;28;20025;-81
2024/01/05 00:24:37;;;;;;;0.22;0.22;;;;;;;;;;5072508;28;20031;-82
2024/01/05 00:27:03;;;;;;;0.20;0.20;;;;;;;;;;5072640;28;20039;-81
2024/01/05 00:29:29;;;;;;;0.30;0.30;;;;;;;;;;5070201;28;20085;-81
2024/01/05 00:31:54;;;;;;;0.17;0.17;;;;;;;;;;5073340;28;20028;-83
2024/01/05 00:34:19;;;;;;;0.40;0.40;;;;;;;;;;5076189;28;20035;-84
2024/01/05 00:36:45;;;;;;;0.10;0.10;;;;;;;;;;5069730;28;20032;-83
2024/01/05 00:39:10;;;;;;;0.43;0.30;;;;;;;;;;5071033;28;20036;-83
2024/01/05 00:41:45;;;;;;;0.40;0.30;;;;;;;;;;5070732;28;20427;-81
2024/01/05 00:44:10;;;;;;;0.30;0.30;;;;;;;;;;5069740;28;20025;-82
2024/01/05 00:46:38;;;;;;;0.30;0.22;;;;;;;;;;5071879;28;20016;-82
2024/01/05 00:49:04;;;;;;;0.63;0.20;;;;;;;;;;5068824;28;20475;-81
2024/01/05 00:51:29;;;;;;;0.10;0.10;;;;;;;;;;5072112;28;20028;-81
2024/01/05 00:53:55;;;;;;;0.22;0.20;;;;;;;;;;5069481;28;20051;-83
2024/01/05 00:56:21;;;;;;;0.15;0.15;;;;;;;;;;5072711;28;20020;-82
2024/01/05 00:58:46;;;;;;;0.45;0.45;;;;;;;;;;5073811;28;20029;-83
2024/01/05 01:01:15;;;;;;;0.20;0.20;;;;;;;;;;5056024;28;20056;-81
2024/01/05 01:03:40;;;;;;;1.02;0.32;;;;;;;;;;5071169;28;20047;-82
2024/01/05 01:06:06;;;;;;;0.32;0.20;;;;;;;;;;5071791;28;20024;-82
2024/01/05 01:08:32;;;;;;;0.45;0.28;;;;;;;;;;5071139;28;20032;-82
2024/01/05 01:10:57;;;;;;;0.30;0.20;;;;;;;;;;5053764;28;20675;-81
2024/01/05 01:13:22;;;;;;;0.10;0.10;;;;;;;;;;5071028;28;20031;-81
2024/01/05 01:15:48;;;;;;;0.30;0.25;;;;;;;;;;5070413;28;20029;-82
2024/01/05 01:18:16;;;;;;;0.20;0.20;;;;;;;;;;5071871;28;20044;-81
2024/01/05 01:20:42;;;;;;;0.70;0.38;;;;;;;;;;5070153;28;20028;-82
2024/01/05 01:23:07;;;;;;;0.32;0.32;;;;;;;;;;5067485;28;20032;-82
2024/01/05 01:25:33;;;;;;;0.20;0.20;;;;;;;;;;5054521;28;20043;-81
2024/01/05 01:27:58;;;;;;;0.20;0.20;;;;;;;;;;5071485;28;20025;-81
2024/01/05 01:30:24;;;;;;;0.30;0.30;;;;;;;;;;5053382;28;20032;-80
2024/01/05 01:32:49;;;;;;;0.10;0.10;;;;;;;;;;5070758;28;20464;-80
2024/01/05 01:35:15;;;;;;;0.20;0.20;;;;;;;;;;5053678;28;20035;-83
2024/01/05 01:37:40;;;;;;;0.20;0.20;;;;;;;;;;5069308;28;20040;-84
2024/01/05 01:40:06;;;;;;;0.80;0.80;;;;;;;;;;5072266;28;20032;-83
2024/01/05 01:42:32;;;;;;;0.85;0.63;;;;;;;;;;5070975;28;20419;-83
2024/01/05 01:44:58;;;;;;;0.82;0.70;;;;;;;;;;5071959;28;20093;-81
2024/01/05 01:47:23;;;;;;;0.63;0.50;;;;;;;;;;5068903;28;20032;-83
2024/01/05 01:49:49;;;;;;;2.88;1.23;;;;;;;;;;5054487;28;20066;-83
2024/01/05 01:52:16;;;;;;;1.48;1.38;;;;;;;;;;5072317;28;20031;-82
2024/01/05 01:54:42;;;;;;;1.13;0.90;;;;;;;;;;5075945;28;20031;-84
2024/01/05 01:57:08;;;;;;;1.45;0.90;;;;;;;;;;5073915;28;20484;-82
2024/01/05 01:59:36;;;;;;;1.38;0.85;;;;;;;;;;5070989;28;20051;-83
2024/01/05 02:02:03;;;;;;;0.50;0.43;;;;;;;;;;5072917;28;20028;-83
2024/01/05 02:04:30;;;;;;;0.15;0.15;;;;;;;;;;5053190;28;20123;-82
2024/01/05 02:06:56;;;;;;;2.42;0.55;;;;;;;;;;5071165;28;20034;-83
2024/01/05 02:09:22;;;;;;;0.50;0.50;;;;;;;;;;5054678;28;20111;-81
2024/01/05 02:11:47;;;;;;;0.10;0.10;;;;;;;;;;5071001;28;20032;-82
2024/01/05 02:14:13;;;;;;;0.15;0.15;;;;;;;;;;5069538;28;20032;-81
2024/01/05 02:16:41;;;;;;;0.40;0.30;;;;;;;;;;5070667;28;20107;-81
2024/01/05 02:19:06;;;;;;;0.32;0.30;;;;;;;;;;5055346;28;20040;-80
2024/01/05 02:21:38;;;;;;;0.47;0.30;;;;;;;;;;5055257;28;20361;-81
2024/01/05 02:24:05;;;;;;;0.10;0.10;;;;;;;;;;5057639;28;20025;-82
2024/01/05 02:26:30;;;;;;;5.28;0.82;;;;;;;;;;5072930;28;20035;-82
2024/01/05 02:28:56;;;;;;;0.13;0.13;;;;;;;;;;5073940;28;20032;-81
2024/01/05 02:31:24;;;;;;;0.28;0.28;;;;;;;;;;5072616;28;20039;-82
2024/01/05 02:33:49;;;;;;;0.20;0.20;;;;;;;;;;5073374;28;20020;-81
2024/01/05 02:36:15;;;;;;;0.10;0.10;;;;;;;;;;5073790;28;20016;-81
2024/01/05 02:38:40;;;;;;;0.15;0.15;;;;;;;;;;5074022;28;20039;-83
2024/01/05 02:41:10;;;;;;;0.57;0.30;;;;;;;;;;5076968;28;20078;-83
2024/01/05 02:43:35;;;;;;;0.10;0.10;;;;;;;;;;5073262;28;20275;-80
2024/01/05 02:46:09;;;;;;;0.40;0.40;;;;;;;;;;5056913;28;20044;-83
2024/01/05 02:48:34;;;;;;;0.22;0.22;;;;;;;;;;5073283;28;20035;-82
2024/01/05 02:51:00;;;;;;;0.63;0.20;;;;;;;;;;5075845;28;20028;-81
2024/01/05 02:53:25;;;;;;;0.20;0.20;;;;;;;;;;5057836;28;20123;-82
2024/01/05 02:55:51;;;;;;;0.50;0.50;;;;;;;;;;5073821;28;20042;-83
2024/01/05 02:58:16;;;;;;;0.20;0.20;;;;;;;;;;5075817;28;20024;-82
2024/01/05 03:00:42;;;;;;;0.68;0.55;;;;;;;;;;5074915;28;20028;-84
2024/01/05 03:03:08;;;;;;;0.10;0.10;;;;;;;;;;5071699;28;20029;-81
2024/01/05 03:05:33;;;;;;;0.77;0.57;;;;;;;;;;5059065;28;20028;-83
2024/01/05 03:07:58;;;;;;;0.10;0.10;;;;;;;;;;5074399;28;20398;-82
2024/01/05 03:10:24;;;;;;;0.30;0.30;;;;;;;;;;5074229;28;20020;-83
2024/01/05 03:12:52;;;;;;;3.03;0.25;;;;;;;;;;5054665;28;20055;-84
2024/01/05 03:15:20;;;;;;;0.00;0.00;;;;;;;;;;5076318;28;20024;-84
2024/01/05 03:17:47;;;;;;;0.25;0.25;;;;;;;;;;5073464;28;20507;-82
2024/01/05 03:20:14;;;;;;;0.65;0.65;;;;;;;;;;5073164;28;20491;-84
2024/01/05 03:22:40;;;;;;;8.15;0.60;;;;;;;;;;5073486;28;20030;-85
2024/01/05 03:25:06;;;;;;;0.63;0.63;;;;;;;;;;5073646;28;20035;-85
2024/01/05 03:27:34;;;;;;;1.08;0.98;;;;;;;;;;5073719;28;20031;-85
2024/01/05 03:30:02;;;;;;;0.82;0.45;;;;;;;;;;5072101;28;20028;-84
2024/01/05 03:32:27;;;;;;;1.45;0.90;;;;;;;;;;5071196;28;20464;-83
2024/01/05 03:34:55;;;;;;;1.38;0.80;;;;;;;;;;5070992;28;20020;-83
2024/01/05 03:37:21;;;;;;;0.93;0.93;;;;;;;;;;5070095;28;20017;-84
2024/01/05 03:39:50;;;;;;;0.47;0.45;;;;;;;;;;5073509;28;20028;-83
2024/01/05 03:42:17;;;;;;;0.40;0.40;;;;;;;;;;5073759;28;20024;-83
2024/01/05 03:44:43;;;;;;;0.32;0.32;;;;;;;;;;5071742;28;20028;-81
2024/01/05 03:47:08;;;;;;;0.00;0.00;;;;;;;;;;5073989;28;20085;-82
2024/01/05 03:49:34;;;;;;;0.30;0.30;;;;;;;;;;5073814;28;20048;-82
2024/01/05 03:51:59;;;;;;;0.10;0.10;;;;;;;;;;5053105;28;20107;-81
2024/01/05 03:54:25;;;;;;;0.10;0.10;;;;;;;;;;5056546;28;20089;-81
2024/01/05 03:56:51;;;;;;;0.10;0.10;;;;;;;;;;5053601;28;20031;-82
2024/01/05 03:59:16;;;;;;;0.20;0.20;;;;;;;;;;5069447;28;20112;-81
2024/01/05 04:01:51;;;;;;;0.20;0.20;;;;;;;;;;5073168;28;20446;-83
2024/01/05 04:04:27;;;;;;;0.43;0.43;;;;;;;;;;5069667;28;20036;-82
2024/01/05 04:06:53;;;;;;;0.15;0.15;;;;;;;;;;5072504;28;20059;-81
2024/01/05 04:09:18;;;;;;;0.50;0.50;;;;;;;;;;5073498;28;20055;-81
2024/01/05 04:11:44;;;;;;;0.52;0.32;;;;;;;;;;5072974;28;20071;-82
2024/01/05 04:14:09;;;;;;;0.35;0.22;;;;;;;;;;5072109;28;20028;-81
2024/01/05 04:16:35;;;;;;;1.17;0.73;;;;;;;;;;5073321;28;20016;-81
2024/01/05 04:19:01;;;;;;;0.30;0.30;;;;;;;;;;5070365;28;20476;-82
2024/01/05 04:21:26;;;;;;;0.10;0.10;;;;;;;;;;5071638;28;20093;-82
2024/01/05 04:24:01;;;;;;;0.10;0.10;;;;;;;;;;5070647;28;20035;-82
2024/01/05 04:26:27;;;;;;;0.20;0.20;;;;;;;;;;5053464;28;20042;-83
2024/01/05 04:28:52;;;;;;;0.13;0.13;;;;;;;;;;5071764;28;20043;-83
2024/01/05 04:31:20;;;;;;;3.30;0.93;;;;;;;;;;5070929;28;20025;-82
2024/01/05 04:33:46;;;;;;;0.40;0.20;;;;;;;;;;5070937;28;20447;-82
2024/01/05 04:36:15;;;;;;;0.65;0.55;;;;;;;;;;5069593;28;20052;-81
2024/01/05 04:38:41;;;;;;;0.25;0.25;;;;;;;;;;5068362;28;20037;-81
2024/01/05 04:41:06;;;;;;;0.00;0.00;;;;;;;;;;5052028;28;20097;-83
2024/01/05 04:43:35;;;;;;;0.30;0.30;;;;;;;;;;5069630;28;20032;-83
2024/01/05 04:46:00;;;;;;;1.45;1.15;;;;;;;;;;5071839;28;20016;-83
2024/01/05 04:48:26;;;;;;;1.45;1.17;;;;;;;;;;5054744;28;20043;-83
2024/01/05 04:50:54;;;;;;;1.10;0.77;;;;;;;;;;5074747;28;20028;-83
2024/01/05 04:53:22;;;;;;;0.45;0.45;;;;;;;;;;5071743;28;20035;-82
2024/01/05 04:55:57;;;;;;;0.63;0.57;;;;;;;;;;5069878;28;20035;-82
2024/01/05 04:58:24;;;;;;;0.80;0.75;;;;;;;;;;5071797;28;20400;-83
2024/01/05 05:00:49;;;;;;;1.85;1.58;;;;;;;;;;5071560;28;20038;-82
2024/01/05 05:03:15;;;;;;;0.57;0.50;;;;;;;;;;5053986;28;20028;-84
2024/01/05 05:05:40;;;;;;;2.78;0.90;;;;;;;;;;5069656;28;20104;-82
2024/01/05 05:08:10;;;;;;;1.00;0.95;;;;;;;;;;5069521;28;20161;-82
2024/01/05 05:10:38;;;;;;;0.95;0.80;;;;;;;;;;5070238;28;20028;-83
2024/01/05 05:13:04;;;;;;;1.67;1.27;;;;;;;;;;5069355;28;20029;-82
2024/01/05 05:15:29;;;;;;;1.27;0.73;;;;;;;;;;5070429;28;20039;-82
2024/01/05 05:17:55;;;;;;;0.70;0.65;;;;;;;;;;5070298;28;20036;-83
2024/01/05 05:20:20;;;;;;;0.35;0.35;;;;;;;;;;5069222;28;20424;-81
2024/01/05 05:22:46;;;;;;;2.55;1.38;;;;;;;;;;5069092;28;20028;-80
2024/01/05 05:25:11;;;;;;;1.25;1.17;;;;;;;;;;5069711;28;20039;-80
2024/01/05 05:27:37;;;;;;;1.55;1.02;;;;;;;;;;5069878;28;20059;-79
2024/01/05 05:30:05;;;;;;;1.13;0.88;;;;;;;;;;5053649;28;20790;-81
2024/01/05 05:32:31;;;;;;;0.75;0.75;;;;;;;;;;5071446;28;20127;-81
2024/01/05 05:34:56;;;;;;;1.80;1.25;;;;;;;;;;5070992;28;20055;-82
2024/01/05 05:37:22;;;;;;;2.30;0.75;;;;;;;;;;5069730;28;20098;-81
2024/01/05 05:39:47;;;;;;;7.65;1.77;;;;;;;;;;5068666;28;20067;-80
2024/01/05 05:42:13;;;;;;;0.55;0.47;;;;;;;;;;5049917;28;20080;-81
2024/01/05 05:44:38;;;;;;;0.95;0.90;;;;;;;;;;5067148;28;20032;-80
2024/01/05 05:47:04;;;;;;;1.75;1.65;;;;;;;;;;5068881;28;20028;-80
2024/01/05 05:49:29;;;;;;;1.30;1.20;;;;;;;;;;5050834;28;20465;-80
2024/01/05 05:51:54;;;;;;;2.13;1.63;;;;;;;;;;5067468;28;20365;-81
2024/01/05 05:54:20;;;;;;;2.00;1.55;;;;;;;;;;5068184;28;20055;-81
2024/01/05 05:56:45;;;;;;;1.27;1.17;;;;;;;;;;5073210;28;20097;-81
2024/01/05 05:59:11;;;;;;;1.52;1.42;;;;;;;;;;5072730;28;20036;-80
2024/01/05 06:01:36;;;;;;;1.13;1.02;;;;;;;;;;5071063;28;20042;-80
2024/01/05 06:04:03;;;;;;;1.27;0.95;;;;;;;;;;5069989;28;20023;-82
2024/01/05 06:06:28;;;;;;;1.08;1.00;;;;;;;;;;5069384;28;20063;-81
2024/01/05 06:08:54;;;;;;;18.90;0.95;;;;;;;;;;5069610;28;20488;-82
2024/01/05 06:11:20;;;;;;;0.50;0.50;;;;;;;;;;5068797;28;20020;-80
2024/01/05 06:13:46;;;;;;;0.50;0.50;;;;;;;;;;5069362;28;20537;-80
2024/01/05 06:16:13;;;;;;;1.90;1.27;;;;;;;;;;5052140;28;20028;-79
2024/01/05 06:18:39;;;;;;;2.92;1.67;;;;;;;;;;5071028;28;20040;-79
2024/01/05 06:21:04;;;;;;;2.92;1.98;;;;;;;;;;5053829;28;20020;-79
2024/01/05 06:23:31;;;;;;;1.17;1.02;;;;;;;;;;5053762;28;20111;-80
2024/01/05 06:25:57;;;;;;;0.75;0.73;;;;;;;;;;5070191;28;20067;-80
2024/01/05 06:28:22;;;;;;;1.45;1.35;;;;;;;;;;5071999;28;20052;-81
2024/01/05 06:30:48;;;;;;;1.20;1.10;;;;;;;;;;5070889;28;20103;-80
2024/01/05 06:33:13;;;;;;;0.40;0.40;;;;;;;;;;5053173;28;20124;-80
2024/01/05 06:35:39;;;;;;;2.53;0.82;;;;;;;;;;5069843;28;20495;-80
2024/01/05 06:38:04;;;;;;;2.47;1.63;;;;;;;;;;5070514;28;20060;-81
2024/01/05 06:40:30;;;;;;;1.13;1.02;;;;;;;;;;5054351;28;20036;-80
2024/01/05 06:42:57;;;;;;;0.45;0.45;;;;;;;;;;5068304;28;20032;-80
2024/01/05 06:45:23;;;;;;;0.60;0.52;;;;;;;;;;5070343;28;20415;-79
2024/01/05 06:47:48;;;;;;;1.00;0.88;;;;;;;;;;5072108;28;20577;-80
2024/01/05 06:50:14;;;;;;;0.32;0.32;;;;;;;;;;5070637;28;20058;-80
2024/01/05 06:52:39;;;;;;;0.68;0.63;;;;;;;;;;5072078;28;20420;-79
2024/01/05 06:55:05;;;;;;;0.70;0.70;;;;;;;;;;5070730;28;20023;-80
2024/01/05 06:57:31;;;;;;;0.35;0.35;;;;;;;;;;5070580;28;20032;-79
2024/01/05 06:59:57;;;;;;;0.50;0.50;;;;;;;;;;5070828;28;20024;-80
2024/01/05 07:02:23;;;;;;;2.95;0.98;;;;;;;;;;5070965;28;20039;-79
2024/01/05 07:04:48;;;;;;;1.38;1.23;;;;;;;;;;5069190;28;20043;-80
2024/01/05 07:07:13;;;;;;;0.50;0.50;;;;;;;;;;5071724;28;20063;-79
2024/01/05 07:09:39;;;;;;;1.15;0.80;;;;;;;;;;5054130;28;20161;-81
2024/01/05 07:12:05;;;;;;;0.90;0.90;;;;;;;;;;5072321;28;20032;-81
2024/01/05 07:14:30;;;;;;;1.85;1.65;;;;;;;;;;5069648;28;20031;-81
2024/01/05 07:17:05;;;;;;;2.88;1.98;;;;;;;;;;5069828;28;20101;-82
2024/01/05 07:19:35;;;;;;;1.42;1.23;;;;;;;;;;5050696;28;20457;-83
2024/01/05 07:22:01;;;;;;;7.00;2.13;;;;;;;;;;5056314;28;20043;-81
2024/01/05 07:24:26;;;;;;;1.85;0.95;;;;;;;;;;5069302;28;20103;-85
2024/01/05 07:26:51;;;;;;;1.15;0.70;;;;;;;;;;5052607;28;20137;-83
2024/01/05 07:29:17;;;;;;;0.95;0.73;;;;;;;;;;5069504;28;20040;-84
2024/01/05 07:31:42;;;;;;;1.48;1.30;;;;;;;;;;5067635;28;20040;-83
2024/01/05 07:34:08;;;;;;;1.05;0.55;;;;;;;;;;5069256;28;20020;-84
2024/01/05 07:36:33;;;;;;;7.38;1.70;;;;;;;;;;5050739;28;20396;-85
2024/01/05 07:38:59;;;;;;;0.85;0.82;;;;;;;;;;5068998;28;20028;-84
2024/01/05 07:41:29;;;;;;;1.17;0.60;;;;;;;;;;5069324;28;20032;-83
2024/01/05 07:43:54;;;;;;;0.70;0.70;;;;;;;;;;5068028;28;20027;-83
2024/01/05 07:46:22;;;;;;;1.40;1.02;;;;;;;;;;5070133;28;20044;-83
2024/01/05 07:48:47;;;;;;;2.05;0.70;;;;;;;;;;5068846;28;20048;-83
2024/01/05 07:51:13;;;;;;;1.70;0.73;;;;;;;;;;5070058;28;20055;-84
2024/01/05 07:53:38;;;;;;;4.53;2.35;;;;;;;;;;5069812;28;20468;-84
2024/01/05 07:56:05;;;;;;;0.90;0.90;;;;;;;;;;5069961;28;20029;-84
2024/01/05 07:58:30;;;;;;;1.80;0.63;;;;;;;;;;5070624;28;20020;-84
2024/01/05 08:00:56;;;;;;;0.80;0.80;;;;;;;;;;5052418;28;20097;-83
2024/01/05 08:03:21;;;;;;;0.68;0.63;;;;;;;;;;5070377;28;20373;-84
2024/01/05 08:05:47;;;;;;;1.10;0.57;;;;;;;;;;5069094;28;20063;-84
2024/01/05 08:08:13;;;;;;;6.63;1.05;;;;;;;;;;5070207;28;20032;-80
2024/01/05 08:10:38;;;;;;;2.00;0.70;;;;;;;;;;5070984;28;20333;-81
2024/01/05 08:13:04;;;;;;;1.75;1.60;;;;;;;;;;5070120;28;20032;-82
2024/01/05 08:15:29;;;;;;;0.45;0.35;;;;;;;;;;5070776;28;20429;-81
2024/01/05 08:17:56;;;;;;;0.40;0.40;;;;;;;;;;5068895;28;20524;-81
2024/01/05 08:20:22;;;;;;;5.20;1.58;;;;;;;;;;5069331;28;20380;-81
2024/01/05 08:22:47;;;;;;;0.95;0.85;;;;;;;;;;5069655;28;20027;-81
2024/01/05 08:25:16;;;;;;;0.50;0.50;;;;;;;;;;5069690;28;20039;-81
2024/01/05 08:27:42;;;;;;;1.10;0.77;;;;;;;;;;5067628;28;20400;-81
2024/01/05 08:30:14;;;;;;;0.77;0.60;;;;;;;;;;5069672;28;20407;-81
2024/01/05 08:32:41;;;;;;;1.85;0.55;;;;;;;;;;5070435;28;20372;-80
2024/01/05 08:35:07;;;;;;;0.75;0.35;;;;;;;;;;5070815;28;20468;-81
2024/01/05 08:37:34;;;;;;;0.50;0.50;;;;;;;;;;5069250;28;20358;-81
2024/01/05 08:39:59;;;;;;;1.20;0.47;;;;;;;;;;5067150;28;20032;-81
2024/01/05 08:42:25;;;;;;;2.00;0.70;;;;;;;;;;5069888;28;20047;-80
2024/01/05 08:44:53;;;;;;;1.15;0.60;;;;;;;;;;5050553;28;20025;-81
2024/01/05 08:47:18;;;;;;;0.28;0.28;;;;;;;;;;5068676;28;20036;-80
2024/01/05 08:49:44;;;;;;;1.25;0.50;;;;;;;;;;5069612;28;20032;-81
2024/01/05 08:52:09;;;;;;;0.70;0.55;;;;;;;;;;5069051;28;20520;-82
2024/01/05 08:54:34;;;;;;;10.55;1.13;;;;;;;;;;5068967;28;20526;-81
2024/01/05 08:57:00;;;;;;;0.30;0.30;;;;;;;;;;5070428;28;20423;-81
2024/01/05 08:59:25;;;;;;;1.10;0.55;;;;;;;;;;5070608;28;20025;-81
2024/01/05 09:01:51;;;;;;;1.58;1.40;;;;;;;;;;5068933;28;20028;-81
2024/01/05 09:04:16;;;;;;;0.30;0.30;;;;;;;;;;5071032;28;20111;-81
2024/01/05 09:06:42;;;;;;;0.30;0.30;;;;;;;;;;5068716;28;21884;-81
2024/01/05 09:09:10;;;;;;;0.50;0.50;;;;;;;;;;5069707;28;20028;-81
2024/01/05 09:11:35;;;;;;;0.40;0.40;;;;;;;;;;5051777;28;20085;-80
2024/01/05 09:14:01;;;;;;;0.88;0.73;;;;;;;;;;5069082;28;20036;-81
2024/01/05 09:16:26;;;;;;;0.43;0.43;;;;;;;;;;5069773;28;20023;-80
2024/01/05 09:18:52;;;;;;;0.70;0.40;;;;;;;;;;5069384;28;20068;-80
2024/01/05 09:21:17;;;;;;;0.50;0.50;;;;;;;;;;5069172;28;20030;-80
2024/01/05 09:23:43;;;;;;;0.73;0.73;;;;;;;;;;5068650;28;20032;-80
2024/01/05 09:26:15;;;;;;;0.40;0.40;;;;;;;;;;5068075;28;20020;-80
2024/01/05 09:28:41;;;;;;;0.85;0.52;;;;;;;;;;5069473;28;20060;-79
2024/01/05 09:31:07;;;;;;;0.73;0.73;;;;;;;;;;5073884;28;20055;-79
2024/01/05 09:33:32;;;;;;;0.30;0.25;;;;;;;;;;5076570;28;20107;-80
2024/01/05 09:35:59;;;;;;;1.25;0.88;;;;;;;;;;5076007;28;20036;-81
2024/01/05 09:38:25;;;;;;;2.72;1.63;;;;;;;;;;5057057;28;20036;-80
2024/01/05 09:40:52;;;;;;;0.77;0.40;;;;;;;;;;5074323;28;20079;-80
2024/01/05 09:43:23;;;;;;;1.98;1.05;;;;;;;;;;5057735;28;20118;-81
2024/01/05 09:45:50;;;;;;;1.30;1.00;;;;;;;;;;5075370;28;20123;-80
2024/01/05 09:48:19;;;;;;;0.57;0.38;;;;;;;;;;5074530;28;20437;-81
2024/01/05 09:50:52;;;;;;;1.00;0.70;;;;;;;;;;5076460;28;20028;-80
2024/01/05 09:53:17;;;;;;;0.65;0.63;;;;;;;;;;5075362;28;20040;-81
2024/01/05 09:55:53;;;;;;;0.70;0.70;;;;;;;;;;5075766;28;20069;-80
2024/01/05 09:58:19;;;;;;;1.55;1.38;;;;;;;;;;5075274;28;20024;-82
2024/01/05 10:00:54;;;;;;;0.55;0.50;;;;;;;;;;5073549;28;20024;-81
2024/01/05 10:03:21;;;;;;;1.30;0.70;;;;;;;;;;5071173;28;20746;-81
2024/01/05 10:05:52;;;;;;;2.40;1.80;;;;;;;;;;5072159;28;20454;-81
2024/01/05 10:08:17;;;;;;;4.03;1.50;;;;;;;;;;5073386;28;20028;-81
2024/01/05 10:10:47;;;;;;;1.90;0.90;;;;;;;;;;5054659;28;20111;-81
2024/01/05 10:13:14;;;;;;;0.77;0.65;;;;;;;;;;5073612;28;20025;-80
2024/01/05 10:15:56;;;;;;;1.20;1.10;;;;;;;;;;5074712;28;20032;-81
2024/01/05 10:18:23;;;;;;;1.88;0.90;;;;;;;;;;5074117;28;20047;-81
2024/01/05 10:20:48;;;;;;;2.92;0.88;;;;;;;;;;5073808;28;20031;-80
2024/01/05 10:23:16;;;;;;;3.78;1.60;;;;;;;;;;5073580;28;20794;-81
2024/01/05 10:25:41;;;;;;;3.35;2.05;;;;;;;;;;5072666;28;20029;-80
2024/01/05 10:28:23;;;;;;;1.75;1.38;;;;;;;;;;5072841;28;20034;-81
2024/01/05 10:30:48;;;;;;;2.70;1.85;;;;;;;;;;5073566;28;20528;-80
2024/01/05 10:33:16;;;;;;;1.98;1.67;;;;;;;;;;5072604;28;20099;-80
2024/01/05 10:35:42;;;;;;;5.03;1.40;;;;;;;;;;5070974;28;20028;-82
2024/01/05 10:38:13;;;;;;;3.28;1.75;;;;;;;;;;5072915;28;20063;-80
2024/01/05 10:40:40;;;;;;;2.25;1.90;;;;;;;;;;5071674;28;20211;-79
2024/01/05 10:43:13;;;;;;;0.82;0.70;;;;;;;;;;5068560;28;20036;-81
2024/01/05 10:45:40;;;;;;;3.85;1.13;;;;;;;;;;5068877;28;20036;-80
2024/01/05 10:48:08;;;;;;;1.20;0.52;;;;;;;;;;5052580;28;20032;-79
2024/01/05 10:50:36;;;;;;;0.52;0.50;;;;;;;;;;5069428;28;20032;-81
2024/01/05 10:53:03;;;;;;;1.27;1.10;;;;;;;;;;5070181;28;20032;-80
2024/01/05 10:55:28;;;;;;;1.80;1.05;;;;;;;;;;5069849;28;20036;-79
2024/01/05 10:57:55;;;;;;;0.93;0.68;;;;;;;;;;5069722;28;20024;-79
2024/01/05 11:00:24;;;;;;;3.03;1.33;;;;;;;;;;5069181;28;20020;-80
2024/01/05 11:02:51;;;;;;;1.27;0.57;;;;;;;;;;5068688;28;20132;-79
2024/01/05 11:05:18;;;;;;;0.60;0.60;;;;;;;;;;5069195;28;20039;-78
2024/01/05 11:07:44;;;;;;;1.75;0.98;;;;;;;;;;5068317;28;20496;-79
2024/01/05 11:10:42;;;;;;;0.57;0.57;;;;;;;;;;5067700;28;20480;-80
2024/01/05 11:13:44;;;;;;;0.35;0.35;;;;;;;;;;5068948;28;20531;-78
2024/01/05 11:16:24;;;;;;;1.00;0.73;;;;;;;;;;5057098;28;20110;-78
2024/01/05 11:19:12;;;;;;;1.73;0.90;;;;;;;;;;5069400;28;20111;-80
2024/01/05 11:21:43;;;;;;;3.13;1.05;;;;;;;;;;5070156;28;20072;-79
2024/01/05 11:24:09;;;;;;;5.22;0.95;;;;;;;;;;5069008;28;20047;-77
2024/01/05 11:26:36;;;;;;;1.90;1.05;;;;;;;;;;5067831;28;20530;-80
2024/01/05 11:29:02;;;;;;;0.98;0.80;;;;;;;;;;5069881;28;20036;-80
2024/01/05 11:31:46;;;;;;;3.00;1.00;;;;;;;;;;5069992;28;20032;-80
2024/01/05 11:34:34;;;;;;;1.00;0.60;;;;;;;;;;5068412;28;20039;-79
2024/01/05 11:37:00;;;;;;;2.25;1.02;;;;;;;;;;5069620;28;20374;-81
2024/01/05 11:39:47;;;;;;;0.65;0.65;;;;;;;;;;5069660;28;20095;-81
2024/01/05 11:42:24;;;;;;;2.45;1.15;;;;;;;;;;5067970;28;20389;-79
2024/01/05 11:44:50;;;;;;;0.98;0.90;;;;;;;;;;5069689;28;20028;-81
2024/01/05 11:47:45;;;;;;;1.13;0.98;;;;;;;;;;5051370;28;20021;-79
2024/01/05 11:50:34;;;;;;;0.60;0.60;;;;;;;;;;5069779;28;20031;-79
2024/01/05 11:53:14;;;;;;;1.30;0.70;;;;;;;;;;5068904;28;20066;-78
2024/01/05 11:55:47;;;;;;;1.48;1.00;;;;;;;;;;5069403;28;20396;-79
2024/01/05 11:58:18;;;;;;;0.60;0.50;;;;;;;;;;5068686;28;20039;-79
2024/01/05 12:00:46;;;;;;;2.20;1.02;;;;;;;;;;5068749;28;20024;-81
2024/01/05 12:03:12;;;;;;;2.25;1.52;;;;;;;;;;5069155;28;20028;-81
2024/01/05 12:05:38;;;;;;;1.55;1.17;;;;;;;;;;5069028;28;20361;-82
2024/01/05 12:08:04;;;;;;;0.73;0.73;;;;;;;;;;5069044;28;20089;-81
2024/01/05 12:10:30;;;;;;;1.10;1.00;;;;;;;;;;5049905;28;20862;-80
2024/01/05 12:12:57;;;;;;;1.95;1.45;;;;;;;;;;5069333;28;20457;-79
2024/01/05 12:15:23;;;;;;;2.65;1.42;;;;;;;;;;5067182;28;20020;-78
2024/01/05 12:17:49;;;;;;;2.05;1.42;;;;;;;;;;5068624;28;20119;-80
2024/01/05 12:20:16;;;;;;;2.00;1.27;;;;;;;;;;5069150;28;20123;-81
2024/01/05 12:22:42;;;;;;;2.42;1.42;;;;;;;;;;5068963;28;20419;-80
2024/01/05 12:25:07;;;;;;;1.33;0.90;;;;;;;;;;5067796;28;20032;-79
2024/01/05 12:27:36;;;;;;;2.35;1.25;;;;;;;;;;5068870;28;20036;-77
2024/01/05 12:30:03;;;;;;;4.03;1.50;;;;;;;;;;5067176;28;20085;-78
2024/01/05 12:32:33;;;;;;;2.70;1.40;;;;;;;;;;5068476;28;20388;-79
2024/01/05 12:34:59;;;;;;;1.10;0.90;;;;;;;;;;5068715;28;20028;-80
2024/01/05 12:37:25;;;;;;;6.80;1.80;;;;;;;;;;5067187;28;20028;-78
2024/01/05 12:39:50;;;;;;;0.98;0.68;;;;;;;;;;5068770;28;20483;-81
2024/01/05 12:42:16;;;;;;;1.55;1.08;;;;;;;;;;5067495;28;20036;-81
2024/01/05 12:44:42;;;;;;;2.35;0.93;;;;;;;;;;5068475;28;20154;-80
2024/01/05 12:47:07;;;;;;;1.17;0.98;;;;;;;;;;5067666;28;20024;-80
2024/01/05 12:49:36;;;;;;;1.63;1.08;;;;;;;;;;5068231;28;20051;-79
2024/01/05 12:52:03;;;;;;;2.28;1.50;;;;;;;;;;5068045;28;20039;-81
2024/01/05 12:54:41;;;;;;;2.25;1.83;;;;;;;;;;5067188;28;20175;-81
2024/01/05 12:57:08;;;;;;;1.23;0.80;;;;;;;;;;5066873;28;20338;-79
2024/01/05 12:59:36;;;;;;;0.80;0.80;;;;;;;;;;5067335;28;20028;-80
2024/01/05 13:02:03;;;;;;;1.35;1.02;;;;;;;;;;5050166;28;20074;-79
2024/01/05 13:04:35;;;;;;;2.88;1.55;;;;;;;;;;5067048;28;20028;-78
2024/01/05 13:07:01;;;;;;;1.40;0.80;;;;;;;;;;5066006;28;20741;-80
2024/01/05 13:09:26;;;;;;;2.20;1.20;;;;;;;;;;5064782;28;20020;-80
2024/01/05 13:11:53;;;;;;;2.28;0.80;;;;;;;;;;5067509;28;20460;-81
2024/01/05 13:14:19;;;;;;;2.42;1.20;;;;;;;;;;5049946;28;20024;-81
2024/01/05 13:16:46;;;;;;;1.55;0.82;;;;;;;;;;5049960;28;20027;-81
2024/01/05 13:19:11;;;;;;;3.53;1.40;;;;;;;;;;5066594;28;20028;-79
2024/01/05 13:21:37;;;;;;;2.25;1.23;;;;;;;;;;5066020;28;20825;-79
2024/01/05 13:24:03;;;;;;;8.75;1.85;;;;;;;;;;5068300;28;20040;-81
2024/01/05 13:26:28;;;;;;;1.00;0.60;;;;;;;;;;5067325;28;20119;-80
2024/01/05 13:28:54;;;;;;;1.58;1.13;;;;;;;;;;5065534;28;20032;-81
2024/01/05 13:31:19;;;;;;;1.25;0.95;;;;;;;;;;5047963;28;20032;-81
2024/01/05 13:33:45;;;;;;;1.73;1.13;;;;;;;;;;5067640;28;20533;-82
2024/01/05 13:36:11;;;;;;;1.63;1.35;;;;;;;;;;5066206;28;20029;-81
2024/01/05 13:38:36;;;;;;;3.10;1.77;;;;;;;;;;5067884;28;20364;-79
2024/01/05 13:41:02;;;;;;;3.03;1.55;;;;;;;;;;5067784;28;20032;-81
2024/01/05 13:43:27;;;;;;;2.80;1.52;;;;;;;;;;5067885;28;20108;-81
2024/01/05 13:45:55;;;;;;;15.32;2.85;;;;;;;;;;5066096;28;20029;-81
2024/01/05 13:48:21;;;;;;;1.48;1.20;;;;;;;;;;5067709;28;20024;-80
2024/01/05 13:50:46;;;;;;;4.38;2.38;;;;;;;;;;5066745;28;20437;-80
2024/01/05 13:53:13;;;;;;;3.78;1.30;;;;;;;;;;5065889;28;20029;-81
2024/01/05 13:55:39;;;;;;;1.77;1.48;;;;;;;;;;5067653;28;20020;-81
2024/01/05 13:58:06;;;;;;;2.58;2.05;;;;;;;;;;5066331;28;20457;-81
2024/01/05 14:00:31;;;;;;;1.48;1.23;;;;;;;;;;5067574;28;20027;-81
2024/01/05 14:02:57;;;;;;;1.23;0.75;;;;;;;;;;5067682;28;20037;-81
2024/01/05 14:05:22;;;;;;;1.73;1.40;;;;;;;;;;5049338;28;20037;-82
2024/01/05 14:07:48;;;;;;;3.30;1.33;;;;;;;;;;5067751;28;20028;-80
2024/01/05 14:10:15;;;;;;;2.05;1.40;;;;;;;;;;5065895;28;20039;-80
2024/01/05 14:12:42;;;;;;;1.55;1.13;;;;;;;;;;5047960;28;20036;-81
2024/01/05 14:15:09;;;;;;;1.40;1.15;;;;;;;;;;5067215;28;20377;-81
2024/01/05 14:17:35;;;;;;;0.93;0.82;;;;;;;;;;5067964;28;20514;-81
2024/01/05 14:20:03;;;;;;;1.70;1.60;;;;;;;;;;5053123;28;20117;-81
2024/01/05 14:22:28;;;;;;;1.65;1.20;;;;;;;;;;5071247;28;20028;-80
2024/01/05 14:24:54;;;;;;;1.13;0.95;;;;;;;;;;5071230;28;20027;-81
2024/01/05 14:27:19;;;;;;;0.63;0.63;;;;;;;;;;5070245;28;20020;-80
2024/01/05 14:29:44;;;;;;;1.10;1.00;;;;;;;;;;5052862;28;20028;-80
2024/01/05 14:32:10;;;;;;;1.70;1.60;;;;;;;;;;5071788;28;20032;-81
2024/01/05 14:34:35;;;;;;;2.78;1.85;;;;;;;;;;5070017;28;20406;-81
2024/01/05 14:37:01;;;;;;;3.00;1.30;;;;;;;;;;5071091;28;20020;-81
2024/01/05 14:39:28;;;;;;;0.80;0.80;;;;;;;;;;5071016;28;20078;-81
2024/01/05 14:41:54;;;;;;;1.27;0.85;;;;;;;;;;5070773;28;20460;-80